• Join FlightAware (Why Join?)
  • Login
  • US Flag 
Rudolph Flight #1: Scheduled 
10:18PM EST


 

Airport Tracker/Info


-or-


 

Live Flight TrackerFlight Track Log ✈ SWA385 ✈ 12-Jul-2013 ✈ KSMF - KSNA

Flight Track Log - Related Links

Times and Time Zones

All times are in EDT time to prevent confusion due to time zone crossing. See the SWA385 flight status page for this flight to view local times or setup timezone preferences in your user account.

Time Position Orientation Groundspeed Altitude Reporting Facility
EDT Latitude Longitude Course Direction KTS MPH feet Rate Location/Type
12:00AM 38.6667 -121.5833 109° East 183 211 1,900  Level Northern Cal TRACON
12:03AM 38.5808 -121.4150 123° Southeast 275 316 10,100 3,660 Climbing Oakland Center
12:04AM 38.5339 -121.3158 121° Southeast 324 373 13,700 3,780 Climbing Oakland Center
12:05AM 38.4814 -121.2078 122° Southeast 358 412 17,800 3,720 Climbing Oakland Center
12:06AM 38.3088 -120.9880 109° East  Level FlightAware Approximate
12:06AM 38.4308 -121.1006 121° Southeast 370 426 21,300  Level Oakland Center
12:07AM 38.3742 -120.9811 121° Southeast 394 453 24,600 3,000 Climbing Oakland Center
12:08AM 38.3147 -120.8564 121° Southeast 409 471 27,400 2,520 Climbing Oakland Center
12:09AM 38.2519 -120.7267 122° Southeast 428 493 29,800 1,740 Climbing Oakland Center
12:10AM 38.1653 -120.6161 135° Southeast 440 506 31,000 540 Climbing Oakland Center
12:11AM 38.0675 -120.5211 143° Southeast 441 507 31,000  Level Oakland Center
12:12AM 37.9508 -120.4089 143° Southeast 439 505 31,000  Level Oakland Center
12:13AM 37.8567 -120.3142 142° Southeast 433 498 31,000  Level Oakland Center
12:14AM 37.7608 -120.2219 143° Southeast 432 497 31,000 840 Level Oakland Center
12:15AM 37.6628 -120.1278 143° Southeast 437 503 32,800 1,860 Climbing Oakland Center
12:16AM 37.5672 -120.0353 142° Southeast 436 502 34,800 1,080 Climbing Oakland Center
12:17AM 37.4736 -119.9458 143° Southeast 427 491 35,000 60 Climbing Oakland Center
12:18AM 37.3792 -119.8553 143° Southeast 425 489 35,000 780 Level Oakland Center
12:19AM 37.2811 -119.7689 145° Southeast 427 491 36,600 1,500 Climbing Oakland Center
12:20AM 37.1714 -119.7531 173° South 399 459 38,100 1,500 Climbing Oakland Center
12:21AM 37.0617 -119.7400 175° South 396 456 39,700 1,320 Climbing Oakland Center
12:22AM 36.9525 -119.7281 175° South 396 456 40,800 600 Climbing Oakland Center
12:23AM 36.8414 -119.7144 174° South 398 458 41,000 60 Climbing Oakland Center
12:24AM 36.7308 -119.7022 175° South 398 458 41,000  Level Oakland Center
12:25AM 36.5978 -119.6878 175° South 398 458 41,000  Level Oakland Center
12:26AM 36.4858 -119.6744 175° South 401 461 41,000  Level Oakland Center
12:27AM 36.3747 -119.6608 174° South 401 461 41,000  Level Oakland Center
12:28AM 36.2636 -119.6492 175° South 400 460 41,000  Level Oakland Center
12:29AM 36.1517 -119.6353 174° South 401 461 41,000  Level Oakland Center
12:30AM 36.0400 -119.6217 174° South 402 463 41,000  Level Oakland Center
12:31AM 35.9272 -119.6158 178° South 404 465 41,000  Level Oakland Center
12:32AM 35.8142 -119.6206 182° South 404 465 41,000  Level Oakland Center
12:33AM 35.7022 -119.6242 182° South 401 461 41,000  Level Oakland Center
12:34AM 35.5892 -119.6281 182° South 402 463 41,000  Level Oakland Center
12:35AM 35.4808 -119.5928 165° South 400 460 41,000  Level Oakland Center
12:36AM 35.3753 -119.5325 155° Southeast 411 473 41,000  Level Oakland Center
12:37AM 35.2711 -119.4753 156° South 410 472 41,000  Level Oakland Center
12:38AM 35.1669 -119.4161 155° Southeast 410 472 41,000  Level Oakland Center
12:39AM 35.0400 -119.3447 155° Southeast 414 476 41,000 -480 Level Oakland Center
12:40AM 34.9367 -119.2861 155° Southeast 410 472 40,100 -1,140 Descending Oakland Center
12:41AM 34.8342 -119.2286 155° Southeast 407 468 38,700 -1,860 Descending Oakland Center
12:42AM 34.7297 -119.1711 156° South 409 471 36,400 -2,700 Descending Oakland Center
12:44AM 34.5867 -119.0925 156° South 412 474 32,000 -2,880 Descending Los Angeles Center
12:45AM 34.4828 -119.0372 156° South 408 470 29,300 -2,880 Descending Los Angeles Center
12:46AM 34.3633 -118.9706 155° Southeast 397 457 26,200 -2,760 Descending Los Angeles Center
12:47AM 34.2642 -118.9144 155° Southeast 395 455 23,700 -2,460 Descending Los Angeles Center
12:48AM 34.1694 -118.8608 155° Southeast 377 434 21,200 -2,400 Descending Los Angeles Center
12:49AM 34.0747 -118.8094 156° South 373 429 18,800 -2,520 Descending Los Angeles Center
12:50AM 33.9775 -118.7575 156° South 364 419 16,100 -2,340 Descending Los Angeles Center
12:51AM 33.8822 -118.7061 156° South 350 403 14,100 -1,080 Descending Los Angeles Center
12:52AM 33.8025 -118.6789 164° South 348 400 14,000 -720 Descending Los Angeles Center
12:53AM 33.6922 -118.6389 163° South 349 402 12,700 -1,620 Descending Los Angeles Center
12:54AM 33.6053 -118.5939 157° South 346 398 10,700 -1,620 Descending Los Angeles Center
12:55AM 33.5447 -118.5214 135° Southeast 332 382 9,500 -1,320 Descending Los Angeles Center
12:56AM 33.5525 -118.4247 84° East 303 349 8,100 -1,440 Descending Los Angeles Center
12:57AM 33.5594 -118.3317 85° East 291 335 6,600 -1,500 Descending Los Angeles Center
12:58AM 33.5886 -118.2497 67° East 280 322 5,100 -1,080 Descending Los Angeles Center
12:59AM 33.6353 -118.1572 59° Northeast 276 318 4,400 -900 Descending Los Angeles Center
01:00AM 33.6667 -118.1000 57° Northeast 272 313 3,600 -840 Descending Southern California TRACON
01:01AM 33.7000 -118.0333 59° Northeast 240 276 3,000 -300 Descending Southern California TRACON
01:02AM 33.7333 -117.9667 59° Northeast 227 261 3,000  Level Southern California TRACON
01:03AM 33.7667 -117.9000 59° Northeast 208 239 3,000  Level Southern California TRACON
01:04AM 33.8167 -117.8667 29° Northeast 198 228 3,100 -300 Climbing Southern California TRACON
01:05AM 33.8167 -117.8167 90° East 173 199 2,500 -540 Descending Southern California TRACON
01:06AM 33.7667 -117.8000 165° South 155 178 2,100 -600 Descending Southern California TRACON
01:07AM 33.7333 -117.8333 220° Southwest 129 148 1,400 -660 Descending Southern California TRACON
01:08AM 33.7167 -117.8500 220° Southwest 116 133 800 -600 Descending Southern California TRACON
01:09AM 33.6833 -117.8667 203° Southwest 112 129 200 -600 Descending Southern California TRACON